Chuckatuck, Virginia
Current Conditions -  °F | °C
As of 5:35 PM on Monday 22 Dec 2014 (Local Time) from KPVG Reporting Station
Overcast Overcast  
Wind Chill: 45°   Ceiling: 500
Heat Index: 48°   Visibility: 4mi
Dew Point: 45°   Wind: 8mph
Humidity: 87%   Direction: 20°NNE
Pressure: 30.04"   Gusts: 17mph
Location:  36.8725°N, 76.5524°W
Report Text: KPVG 222235Z AUTO 02007G15KT 350V050 4SM BKN005 OVC110 09/07 A3004 RMK AO1
Loading
Personal Weather Stations






























Interactive Weather Map New forecast layout! Learn more

10-Day Weather Forecast

Advertisements
Track Severe Weather on mobile